Time;durP1;ratioP1;P1;durP2;ratioP2;P2;SDS_P1;SDS_P2;PMS_P1;PMS_P2;Temp;Humidity;BMP_temperature;BMP_pressure;BME280_temperature;BME280_humidity;BME280_pressure;Samples;Min_cycle;Max_cycle;Signal;HPM_P1;HPM_P2
2022/05/17 00:00:41;;;;;;;16.58;13.23;;;;;;;;;;5086870;28;20032;-61
2022/05/17 00:03:07;;;;;;;15.73;13.60;;;;;;;;;;5096077;28;20919;-61
2022/05/17 00:05:33;;;;;;;15.10;13.25;;;;;;;;;;5094675;28;20115;-62
2022/05/17 00:07:59;;;;;;;16.27;13.35;;;;;;;;;;5093391;28;20403;-61
2022/05/17 00:10:26;;;;;;;13.98;12.02;;;;;;;;;;5086461;28;20016;-61
2022/05/17 00:12:52;;;;;;;16.80;13.73;;;;;;;;;;5086756;28;20032;-61
2022/05/17 00:15:18;;;;;;;17.55;13.27;;;;;;;;;;5085413;28;20433;-61
2022/05/17 00:17:44;;;;;;;14.93;13.32;;;;;;;;;;5103489;28;20032;-61
2022/05/17 00:20:11;;;;;;;17.35;13.55;;;;;;;;;;5092338;28;20032;-62
2022/05/17 00:22:38;;;;;;;17.50;13.43;;;;;;;;;;5093345;28;20028;-61
2022/05/17 00:25:05;;;;;;;16.88;13.27;;;;;;;;;;5097117;28;20054;-61
2022/05/17 00:27:31;;;;;;;17.60;13.93;;;;;;;;;;5086763;28;20046;-62
2022/05/17 00:29:57;;;;;;;16.25;13.63;;;;;;;;;;5095645;28;20565;-62
2022/05/17 00:32:23;;;;;;;18.75;13.80;;;;;;;;;;5092021;28;20028;-61
2022/05/17 00:34:49;;;;;;;15.20;12.82;;;;;;;;;;5087699;28;20020;-61
2022/05/17 00:37:16;;;;;;;16.48;12.50;;;;;;;;;;5092171;28;20107;-61
2022/05/17 00:39:42;;;;;;;17.45;12.98;;;;;;;;;;5095011;28;20511;-61
2022/05/17 00:42:08;;;;;;;15.98;12.57;;;;;;;;;;5097484;28;20035;-61
2022/05/17 00:44:43;;;;;;;16.75;12.38;;;;;;;;;;5098286;28;20039;-61
2022/05/17 00:47:26;;;;;;;16.48;13.07;;;;;;;;;;5095318;28;20078;-61
2022/05/17 00:50:05;;;;;;;14.98;12.10;;;;;;;;;;5092328;28;20490;-62
2022/05/17 00:52:39;;;;;;;13.77;11.90;;;;;;;;;;5097811;28;20036;-61
2022/05/17 00:55:08;;;;;;;15.25;11.77;;;;;;;;;;5103315;28;20053;-61
2022/05/17 00:57:40;;;;;;;15.57;11.50;;;;;;;;;;5090191;28;20051;-61
2022/05/17 01:00:08;;;;;;;13.73;11.18;;;;;;;;;;5082834;28;20070;-62
2022/05/17 01:02:35;;;;;;;16.10;11.73;;;;;;;;;;5101977;28;20024;-61
2022/05/17 01:05:02;;;;;;;13.93;11.57;;;;;;;;;;5098093;28;20027;-62
2022/05/17 01:07:31;;;;;;;12.50;10.05;;;;;;;;;;5100457;28;20027;-61
2022/05/17 01:09:58;;;;;;;14.70;11.23;;;;;;;;;;5093321;28;20463;-61
2022/05/17 01:12:24;;;;;;;12.93;10.20;;;;;;;;;;5097533;28;20020;-61
2022/05/17 01:15:00;;;;;;;14.40;11.02;;;;;;;;;;5081946;28;20022;-62
2022/05/17 01:17:27;;;;;;;12.05;10.10;;;;;;;;;;5098748;28;20055;-61
2022/05/17 01:19:53;;;;;;;13.45;10.25;;;;;;;;;;5097340;28;20020;-61
2022/05/17 01:22:19;;;;;;;13.18;10.02;;;;;;;;;;5101303;28;20106;-62
2022/05/17 01:24:45;;;;;;;14.35;9.93;;;;;;;;;;5100036;28;20028;-61
2022/05/17 01:27:11;;;;;;;13.48;10.13;;;;;;;;;;5088582;28;20032;-62
2022/05/17 01:29:38;;;;;;;12.27;9.88;;;;;;;;;;5098503;28;20038;-61
2022/05/17 01:32:05;;;;;;;11.13;9.52;;;;;;;;;;5089758;28;20032;-62
2022/05/17 01:34:31;;;;;;;14.50;9.73;;;;;;;;;;5092949;28;20035;-61
2022/05/17 01:36:57;;;;;;;14.50;9.52;;;;;;;;;;5096722;28;20120;-61
2022/05/17 01:39:23;;;;;;;17.55;10.70;;;;;;;;;;5105617;28;20521;-61
2022/05/17 01:41:49;;;;;;;11.55;9.45;;;;;;;;;;5093942;28;20111;-61
2022/05/17 01:44:15;;;;;;;13.95;10.02;;;;;;;;;;5101224;28;20019;-61
2022/05/17 01:46:41;;;;;;;13.98;9.55;;;;;;;;;;5098895;28;20515;-61
2022/05/17 01:49:07;;;;;;;10.27;9.15;;;;;;;;;;5088201;28;20047;-61
2022/05/17 01:51:34;;;;;;;10.95;9.00;;;;;;;;;;5086435;27;20032;-61
2022/05/17 01:54:00;;;;;;;11.45;9.10;;;;;;;;;;5099853;28;20059;-62
2022/05/17 01:56:26;;;;;;;10.75;9.65;;;;;;;;;;5091946;28;20463;-61
2022/05/17 01:58:52;;;;;;;14.60;9.20;;;;;;;;;;5088418;28;20028;-61
2022/05/17 02:01:18;;;;;;;11.07;9.00;;;;;;;;;;5096467;28;20061;-61
2022/05/17 02:03:44;;;;;;;11.05;9.18;;;;;;;;;;5097663;27;20053;-61
2022/05/17 02:06:10;;;;;;;12.05;8.70;;;;;;;;;;5105751;28;20027;-62
2022/05/17 02:08:36;;;;;;;12.65;9.40;;;;;;;;;;5094485;28;20390;-61
2022/05/17 02:11:03;;;;;;;12.52;9.55;;;;;;;;;;5094541;28;20031;-61
2022/05/17 02:13:29;;;;;;;10.60;9.50;;;;;;;;;;5098823;28;20160;-61
2022/05/17 02:15:55;;;;;;;13.63;9.65;;;;;;;;;;5099042;28;20064;-61
2022/05/17 02:18:21;;;;;;;11.10;9.73;;;;;;;;;;5091634;28;20382;-62
2022/05/17 02:20:48;;;;;;;13.75;9.85;;;;;;;;;;5099389;28;20145;-61
2022/05/17 02:23:14;;;;;;;14.48;10.05;;;;;;;;;;5090356;28;20475;-62
2022/05/17 02:25:40;;;;;;;14.32;9.90;;;;;;;;;;5094191;28;20615;-62
2022/05/17 02:28:07;;;;;;;13.18;10.38;;;;;;;;;;5084425;28;20118;-62
2022/05/17 02:30:33;;;;;;;12.40;9.82;;;;;;;;;;5093327;28;20059;-61
2022/05/17 02:32:59;;;;;;;13.85;9.70;;;;;;;;;;5094294;28;20547;-62
2022/05/17 02:35:25;;;;;;;13.05;10.32;;;;;;;;;;5087871;28;20016;-61
2022/05/17 02:37:51;;;;;;;14.93;10.10;;;;;;;;;;5089297;28;20073;-61
2022/05/17 02:40:17;;;;;;;12.40;9.93;;;;;;;;;;5085803;28;20127;-62
2022/05/17 02:42:43;;;;;;;13.48;10.20;;;;;;;;;;5085481;28;20028;-61
2022/05/17 02:45:09;;;;;;;10.73;9.63;;;;;;;;;;5089921;28;20056;-61
2022/05/17 02:47:35;;;;;;;13.88;9.88;;;;;;;;;;5093497;28;20019;-61
2022/05/17 02:50:01;;;;;;;11.75;9.25;;;;;;;;;;5082184;28;20571;-61
2022/05/17 02:52:27;;;;;;;11.30;9.20;;;;;;;;;;5080905;28;20091;-61
2022/05/17 02:54:53;;;;;;;11.80;9.30;;;;;;;;;;5098643;28;20038;-60
2022/05/17 02:57:19;;;;;;;12.27;9.38;;;;;;;;;;5087804;28;20392;-62
2022/05/17 02:59:45;;;;;;;12.75;9.40;;;;;;;;;;5085332;28;20032;-61
2022/05/17 03:02:11;;;;;;;14.32;10.10;;;;;;;;;;5091349;28;20102;-61
2022/05/17 03:04:37;;;;;;;12.00;9.70;;;;;;;;;;5099157;28;20033;-61
2022/05/17 03:07:03;;;;;;;13.40;10.18;;;;;;;;;;5092666;28;20027;-61
2022/05/17 03:09:29;;;;;;;12.07;9.27;;;;;;;;;;5095698;28;20047;-61
2022/05/17 03:11:55;;;;;;;14.90;9.82;;;;;;;;;;5097380;28;20059;-61
2022/05/17 03:14:22;;;;;;;12.95;8.73;;;;;;;;;;5098496;28;20032;-60
2022/05/17 03:16:48;;;;;;;11.00;9.32;;;;;;;;;;5093136;28;20051;-61
2022/05/17 03:19:14;;;;;;;13.95;9.27;;;;;;;;;;5101679;28;20024;-61
2022/05/17 03:21:40;;;;;;;15.55;10.57;;;;;;;;;;5098314;28;20382;-61
2022/05/17 03:24:06;;;;;;;11.38;9.55;;;;;;;;;;5087184;28;20030;-61
2022/05/17 03:26:32;;;;;;;12.48;9.35;;;;;;;;;;5092707;28;20112;-61
2022/05/17 03:28:58;;;;;;;11.85;9.15;;;;;;;;;;5093121;28;20480;-61
2022/05/17 03:31:25;;;;;;;14.18;9.75;;;;;;;;;;5098212;28;20136;-61
2022/05/17 03:33:51;;;;;;;13.20;9.23;;;;;;;;;;5087989;28;20032;-62
2022/05/17 03:36:17;;;;;;;11.88;9.70;;;;;;;;;;5101213;28;20027;-61
2022/05/17 03:38:43;;;;;;;13.80;9.52;;;;;;;;;;5094343;28;20043;-61
2022/05/17 03:41:10;;;;;;;13.45;8.57;;;;;;;;;;5095477;28;20020;-61
2022/05/17 03:43:36;;;;;;;10.93;8.82;;;;;;;;;;5082540;28;20038;-62
2022/05/17 03:46:02;;;;;;;14.60;9.38;;;;;;;;;;5085889;28;20036;-61
2022/05/17 03:48:29;;;;;;;11.32;8.75;;;;;;;;;;5101055;28;20051;-61
2022/05/17 03:50:55;;;;;;;14.55;8.25;;;;;;;;;;5090294;28;20028;-62
2022/05/17 03:53:21;;;;;;;12.80;8.82;;;;;;;;;;5092769;28;20035;-61
2022/05/17 03:55:47;;;;;;;15.73;8.95;;;;;;;;;;5088430;28;20020;-61
2022/05/17 03:58:14;;;;;;;13.45;9.40;;;;;;;;;;5092594;28;20047;-62
2022/05/17 04:00:40;;;;;;;14.68;9.38;;;;;;;;;;5095915;28;20085;-61
2022/05/17 04:03:06;;;;;;;16.00;9.73;;;;;;;;;;5097665;28;20051;-62
2022/05/17 04:05:32;;;;;;;13.98;9.45;;;;;;;;;;5096608;28;20032;-61
2022/05/17 04:07:58;;;;;;;15.32;9.85;;;;;;;;;;5094843;28;20019;-62
2022/05/17 04:10:24;;;;;;;12.13;8.80;;;;;;;;;;5095571;28;20371;-61
2022/05/17 04:12:50;;;;;;;11.80;9.10;;;;;;;;;;5099981;28;20049;-61
2022/05/17 04:15:18;;;;;;;13.65;9.07;;;;;;;;;;5105166;28;20032;-61
2022/05/17 04:17:44;;;;;;;12.85;9.18;;;;;;;;;;5099213;28;20055;-62
2022/05/17 04:20:12;;;;;;;13.45;9.02;;;;;;;;;;5100355;28;20063;-61
2022/05/17 04:22:41;;;;;;;15.38;9.40;;;;;;;;;;5102603;28;20028;-61
2022/05/17 04:25:07;;;;;;;11.77;8.80;;;;;;;;;;5089380;28;20075;-61
2022/05/17 04:27:33;;;;;;;15.13;8.68;;;;;;;;;;5102450;28;20089;-60
2022/05/17 04:29:59;;;;;;;13.02;8.70;;;;;;;;;;5099985;28;20031;-62
2022/05/17 04:32:25;;;;;;;13.07;9.20;;;;;;;;;;5097350;28;20043;-62
2022/05/17 04:34:51;;;;;;;14.10;8.90;;;;;;;;;;5090325;28;20472;-61
2022/05/17 04:37:17;;;;;;;14.45;9.15;;;;;;;;;;5101912;28;20035;-61
2022/05/17 04:39:43;;;;;;;12.57;8.63;;;;;;;;;;5093944;28;20027;-61
2022/05/17 04:42:09;;;;;;;16.00;8.35;;;;;;;;;;5089469;28;20529;-61
2022/05/17 04:44:35;;;;;;;14.88;8.77;;;;;;;;;;5095550;28;20063;-61
2022/05/17 04:47:01;;;;;;;12.15;8.63;;;;;;;;;;5096650;28;20024;-61
2022/05/17 04:49:27;;;;;;;13.52;8.55;;;;;;;;;;5091174;28;20020;-61
2022/05/17 04:51:53;;;;;;;13.60;9.10;;;;;;;;;;5096480;28;20694;-61
2022/05/17 04:54:19;;;;;;;15.52;8.93;;;;;;;;;;5094448;28;20424;-61
2022/05/17 04:56:45;;;;;;;11.90;8.38;;;;;;;;;;5089857;28;20419;-61
2022/05/17 04:59:11;;;;;;;12.50;8.57;;;;;;;;;;5092409;28;20149;-61
2022/05/17 05:01:38;;;;;;;12.32;8.75;;;;;;;;;;5094544;28;20024;-61
2022/05/17 05:04:04;;;;;;;13.95;8.52;;;;;;;;;;5083762;28;20020;-61
2022/05/17 05:06:31;;;;;;;15.05;8.88;;;;;;;;;;5096826;28;20111;-61
2022/05/17 05:08:57;;;;;;;12.90;8.93;;;;;;;;;;5095610;28;20145;-60
2022/05/17 05:11:23;;;;;;;20.88;9.75;;;;;;;;;;5082956;28;20517;-61
2022/05/17 05:13:49;;;;;;;12.25;8.32;;;;;;;;;;5096881;28;20107;-60
2022/05/17 05:16:15;;;;;;;16.40;9.18;;;;;;;;;;5083991;28;20032;-61
2022/05/17 05:18:41;;;;;;;12.93;9.32;;;;;;;;;;5102883;28;20024;-61
2022/05/17 05:21:12;;;;;;;18.77;9.52;;;;;;;;;;5093722;28;20483;-60
2022/05/17 05:23:38;;;;;;;16.17;9.80;;;;;;;;;;5094841;28;20556;-61
2022/05/17 05:26:05;;;;;;;18.13;9.25;;;;;;;;;;5090889;28;20024;-61
2022/05/17 05:28:31;;;;;;;20.90;10.45;;;;;;;;;;5098442;28;20023;-61
2022/05/17 05:30:57;;;;;;;14.85;10.20;;;;;;;;;;5090271;28;20057;-61
2022/05/17 05:33:23;;;;;;;20.35;11.25;;;;;;;;;;5095164;28;20028;-61
2022/05/17 05:35:49;;;;;;;18.77;10.32;;;;;;;;;;5089164;28;20491;-61
2022/05/17 05:38:16;;;;;;;20.95;10.35;;;;;;;;;;5092722;28;20103;-62
2022/05/17 05:40:42;;;;;;;19.98;10.45;;;;;;;;;;5087426;28;20019;-61
2022/05/17 05:43:08;;;;;;;17.30;11.00;;;;;;;;;;5087265;28;20059;-61
2022/05/17 05:45:34;;;;;;;17.83;10.43;;;;;;;;;;5091536;28;20454;-61
2022/05/17 05:48:01;;;;;;;19.95;11.63;;;;;;;;;;5089788;28;20452;-62
2022/05/17 05:50:27;;;;;;;15.40;10.73;;;;;;;;;;5083650;28;20088;-61
2022/05/17 05:53:00;;;;;;;19.85;10.98;;;;;;;;;;5094823;28;20479;-61
2022/05/17 05:55:26;;;;;;;;;;;;;;;;;;5084828;28;20032;-61
2022/05/17 05:57:52;;;;;;;17.52;10.88;;;;;;;;;;5089662;28;19908;-61
2022/05/17 06:00:20;;;;;;;18.00;10.45;;;;;;;;;;5096980;28;20452;-61
2022/05/17 06:02:46;;;;;;;16.38;10.25;;;;;;;;;;5092882;28;20024;-61
2022/05/17 06:05:12;;;;;;;19.67;11.00;;;;;;;;;;5093140;28;20479;-61
2022/05/17 06:07:38;;;;;;;26.13;12.45;;;;;;;;;;5089343;28;20028;-61
2022/05/17 06:10:04;;;;;;;26.02;11.82;;;;;;;;;;5095989;28;20031;-61
2022/05/17 06:12:30;;;;;;;22.83;11.45;;;;;;;;;;5088374;28;20134;-61
2022/05/17 06:14:57;;;;;;;16.65;10.02;;;;;;;;;;5101449;28;20116;-61
2022/05/17 06:17:27;;;;;;;17.45;10.48;;;;;;;;;;5094703;28;20032;-61
2022/05/17 06:19:53;;;;;;;22.35;10.75;;;;;;;;;;5094462;28;20428;-61
2022/05/17 06:22:19;;;;;;;16.23;9.88;;;;;;;;;;5088500;28;20545;-61
2022/05/17 06:24:45;;;;;;;25.75;11.38;;;;;;;;;;5084135;28;20138;-61
2022/05/17 06:27:11;;;;;;;21.73;10.80;;;;;;;;;;5092183;28;20040;-62
2022/05/17 06:29:38;;;;;;;15.75;9.77;;;;;;;;;;5095746;28;20081;-61
2022/05/17 06:32:05;;;;;;;22.20;11.38;;;;;;;;;;5098200;27;20061;-62
2022/05/17 06:34:31;;;;;;;20.27;10.38;;;;;;;;;;5090463;27;20020;-61
2022/05/17 06:36:57;;;;;;;19.45;9.55;;;;;;;;;;5097663;28;20034;-61
2022/05/17 06:39:23;;;;;;;19.00;9.57;;;;;;;;;;5084947;28;20024;-61
2022/05/17 06:41:51;;;;;;;15.73;9.57;;;;;;;;;;5095934;28;20026;-61
2022/05/17 06:44:17;;;;;;;19.92;9.82;;;;;;;;;;5084615;28;20040;-62
2022/05/17 06:46:44;;;;;;;16.67;9.68;;;;;;;;;;5093599;28;20153;-61
2022/05/17 06:49:10;;;;;;;17.30;10.70;;;;;;;;;;5088311;28;20464;-61
2022/05/17 06:51:37;;;;;;;17.42;9.70;;;;;;;;;;5089915;28;20040;-61
2022/05/17 06:54:03;;;;;;;20.38;10.25;;;;;;;;;;5081923;28;20041;-62
2022/05/17 06:56:29;;;;;;;19.17;8.30;;;;;;;;;;5080509;28;20417;-61
2022/05/17 06:58:56;;;;;;;20.08;9.00;;;;;;;;;;5095080;28;20029;-61
2022/05/17 07:01:22;;;;;;;14.57;7.78;;;;;;;;;;5095836;28;20035;-61
2022/05/17 07:03:50;;;;;;;13.70;7.20;;;;;;;;;;5088346;28;20062;-62
2022/05/17 07:06:17;;;;;;;14.05;6.72;;;;;;;;;;5087025;28;20429;-61
2022/05/17 07:08:43;;;;;;;12.98;7.15;;;;;;;;;;5087292;28;20036;-62
2022/05/17 07:13:55;;;;;;;18.67;7.65;;;;;;;;;;5094311;28;20074;-62
2022/05/17 07:16:22;;;;;;;16.30;7.65;;;;;;;;;;5068305;28;20028;-62
2022/05/17 07:18:48;;;;;;;15.25;7.53;;;;;;;;;;5092525;28;20055;-62
2022/05/17 07:21:15;;;;;;;14.85;7.35;;;;;;;;;;5087965;28;20028;-62
2022/05/17 07:23:42;;;;;;;14.38;7.90;;;;;;;;;;5094405;28;20038;-61
2022/05/17 07:26:09;;;;;;;14.85;8.02;;;;;;;;;;5083605;28;20028;-62
2022/05/17 07:28:55;;;;;;;19.48;7.53;;;;;;;;;;5101295;27;20090;-62
2022/05/17 07:31:21;;;;;;;17.70;7.32;;;;;;;;;;5091293;28;20047;-62
2022/05/17 07:33:47;;;;;;;15.70;8.07;;;;;;;;;;5091043;28;20437;-61
2022/05/17 07:36:13;;;;;;;17.40;7.45;;;;;;;;;;5095728;28;20104;-61
2022/05/17 07:38:40;;;;;;;17.90;7.70;;;;;;;;;;5089662;28;20017;-61
2022/05/17 07:41:06;;;;;;;15.00;7.70;;;;;;;;;;5098192;28;20529;-62
2022/05/17 07:43:32;;;;;;;19.35;7.30;;;;;;;;;;5093600;28;20024;-61
2022/05/17 07:45:57;;;;;;;19.02;7.88;;;;;;;;;;5093931;28;20023;-61
2022/05/17 07:48:25;;;;;;;13.00;7.28;;;;;;;;;;5084524;28;20399;-62
2022/05/17 07:50:52;;;;;;;18.77;7.68;;;;;;;;;;5095458;28;20016;-62
2022/05/17 07:53:19;;;;;;;15.63;7.72;;;;;;;;;;5087727;28;20028;-61
2022/05/17 07:55:46;;;;;;;16.75;7.43;;;;;;;;;;5087325;28;20024;-61
2022/05/17 07:58:12;;;;;;;14.70;7.03;;;;;;;;;;5087048;28;20388;-62
2022/05/17 08:00:39;;;;;;;18.27;8.98;;;;;;;;;;5082488;28;20024;-61
2022/05/17 08:03:05;;;;;;;19.00;8.50;;;;;;;;;;5089212;28;20455;-61
2022/05/17 08:05:31;;;;;;;18.48;8.00;;;;;;;;;;5092404;28;20031;-62
2022/05/17 08:07:57;;;;;;;16.38;7.57;;;;;;;;;;5089164;28;20015;-62
2022/05/17 08:10:23;;;;;;;18.25;8.18;;;;;;;;;;5087397;28;20040;-61
2022/05/17 08:12:50;;;;;;;18.13;8.88;;;;;;;;;;5085100;28;20032;-62
2022/05/17 08:15:20;;;;;;;20.40;8.48;;;;;;;;;;5095759;28;20493;-62
2022/05/17 08:17:46;;;;;;;18.50;8.75;;;;;;;;;;5085874;28;20055;-61
2022/05/17 08:20:12;;;;;;;17.98;9.07;;;;;;;;;;5085536;28;20106;-61
2022/05/17 08:22:39;;;;;;;16.48;8.50;;;;;;;;;;5086586;28;20028;-62
2022/05/17 08:27:49;;;;;;;18.10;8.85;;;;;;;;;;5085343;28;20388;-62
2022/05/17 08:30:19;;;;;;;21.20;9.48;;;;;;;;;;5088775;28;20474;-61
2022/05/17 08:35:30;;;;;;;17.75;8.23;;;;;;;;;;5089008;28;20054;-62
2022/05/17 08:37:56;;;;;;;19.45;8.52;;;;;;;;;;5085398;28;20021;-62
2022/05/17 08:40:22;;;;;;;17.92;8.85;;;;;;;;;;5092433;28;20031;-62
2022/05/17 08:42:51;;;;;;;16.30;8.18;;;;;;;;;;5083959;28;20132;-62
2022/05/17 08:45:21;;;;;;;19.83;8.25;;;;;;;;;;5093899;28;20550;-62
2022/05/17 08:47:52;;;;;;;15.80;7.72;;;;;;;;;;5101532;28;20020;-62
2022/05/17 08:50:20;;;;;;;16.38;8.57;;;;;;;;;;5091081;28;20387;-62
2022/05/17 08:52:46;;;;;;;14.45;7.82;;;;;;;;;;5097242;28;20028;-62
2022/05/17 08:55:24;;;;;;;19.92;8.07;;;;;;;;;;5091585;28;20020;-62
2022/05/17 08:57:53;;;;;;;15.73;8.23;;;;;;;;;;5104416;28;20016;-61
2022/05/17 09:00:28;;;;;;;18.98;7.53;;;;;;;;;;5086756;28;20024;-62
2022/05/17 09:02:54;;;;;;;17.75;7.82;;;;;;;;;;5092064;28;20024;-62
2022/05/17 09:05:20;;;;;;;19.20;8.25;;;;;;;;;;5094096;28;20055;-62
2022/05/17 09:07:47;;;;;;;16.88;8.52;;;;;;;;;;5100765;28;20390;-62
2022/05/17 09:10:19;;;;;;;21.10;8.73;;;;;;;;;;5090031;28;20032;-62
2022/05/17 09:12:51;;;;;;;14.18;7.50;;;;;;;;;;5086770;28;20027;-62
2022/05/17 09:15:17;;;;;;;15.30;8.10;;;;;;;;;;5088870;28;20023;-62
2022/05/17 09:17:44;;;;;;;16.80;8.07;;;;;;;;;;5087321;28;20028;-62
2022/05/17 09:20:13;;;;;;;19.67;8.00;;;;;;;;;;5084209;28;20030;-62
2022/05/17 09:22:39;;;;;;;13.73;7.55;;;;;;;;;;5086042;28;20938;-62
2022/05/17 09:25:20;;;;;;;16.88;9.23;;;;;;;;;;5093483;28;20048;-62
2022/05/17 09:27:53;;;;;;;17.17;9.15;;;;;;;;;;5085040;28;20107;-62
2022/05/17 09:30:22;;;;;;;22.00;8.80;;;;;;;;;;5093889;28;20021;-62
2022/05/17 09:32:48;;;;;;;21.90;9.52;;;;;;;;;;5088259;28;20084;-62
2022/05/17 09:35:20;;;;;;;20.00;8.70;;;;;;;;;;5091485;28;20023;-62
2022/05/17 09:37:47;;;;;;;19.05;8.63;;;;;;;;;;5098814;28;20498;-62
2022/05/17 09:40:14;;;;;;;19.88;8.80;;;;;;;;;;5098106;28;20621;-61
2022/05/17 09:42:52;;;;;;;22.75;10.15;;;;;;;;;;5096416;28;20015;-62
2022/05/17 09:45:20;;;;;;;19.90;9.60;;;;;;;;;;5096515;28;20024;-62
2022/05/17 09:48:00;;;;;;;15.65;9.30;;;;;;;;;;5090437;28;20032;-62
2022/05/17 09:53:15;;;;;;;12.60;8.75;;;;;;;;;;5101149;28;20084;-62
2022/05/17 09:55:46;;;;;;;21.45;8.75;;;;;;;;;;5085556;28;20019;-62
2022/05/17 09:58:28;;;;;;;19.92;9.73;;;;;;;;;;5096559;28;20028;-62
2022/05/17 10:00:54;;;;;;;17.40;8.77;;;;;;;;;;5097708;28;20051;-62
2022/05/17 10:03:29;;;;;;;18.38;8.23;;;;;;;;;;5093823;28;20639;-62
2022/05/17 10:05:58;;;;;;;15.27;7.95;;;;;;;;;;5088666;28;20440;-62
2022/05/17 10:08:31;;;;;;;15.00;7.35;;;;;;;;;;5092572;28;20031;-62
2022/05/17 10:11:03;;;;;;;13.38;7.20;;;;;;;;;;5088341;28;20357;-62
2022/05/17 10:13:51;;;;;;;16.10;8.00;;;;;;;;;;5084579;28;20082;-62
2022/05/17 10:16:24;;;;;;;17.05;7.68;;;;;;;;;;5088520;28;20480;-62
2022/05/17 10:18:53;;;;;;;;;;;;;;;;;;5091289;28;20037;-62
2022/05/17 10:21:26;;;;;;;16.75;6.60;;;;;;;;;;5090275;28;19923;-62
2022/05/17 10:24:01;;;;;;;16.95;8.98;;;;;;;;;;5090907;28;20027;-62
2022/05/17 10:26:31;;;;;;;16.08;9.55;;;;;;;;;;5090358;28;20396;-62
2022/05/17 10:29:00;;;;;;;17.33;9.40;;;;;;;;;;5094263;28;20031;-62
2022/05/17 10:31:47;;;;;;;17.73;9.73;;;;;;;;;;5087088;28;20046;-62
2022/05/17 10:34:32;;;;;;;24.27;12.82;;;;;;;;;;5093987;28;20106;-62
2022/05/17 10:37:00;;;;;;;23.08;12.75;;;;;;;;;;5086077;28;20077;-62
2022/05/17 10:39:56;;;;;;;25.92;12.10;;;;;;;;;;5097333;28;20479;-62
2022/05/17 10:42:24;;;;;;;26.17;12.80;;;;;;;;;;5083384;28;20481;-62
2022/05/17 10:44:53;;;;;;;27.25;11.25;;;;;;;;;;5088084;28;20345;-62
2022/05/17 10:47:39;;;;;;;24.55;12.35;;;;;;;;;;5094664;28;20023;-62
2022/05/17 10:50:11;;;;;;;22.85;9.70;;;;;;;;;;5093864;28;20015;-62
2022/05/17 10:52:40;;;;;;;20.17;10.60;;;;;;;;;;5090507;28;20384;-62
2022/05/17 10:55:17;;;;;;;22.13;11.02;;;;;;;;;;5083007;28;20031;-62
2022/05/17 10:57:48;;;;;;;20.38;10.20;;;;;;;;;;5085531;28;20019;-62
2022/05/17 11:00:25;;;;;;;22.48;9.43;;;;;;;;;;5084982;28;20024;-62
2022/05/17 11:03:07;;;;;;;16.98;7.32;;;;;;;;;;5096179;28;20096;-62
2022/05/17 11:05:36;;;;;;;15.82;7.00;;;;;;;;;;5086025;28;20201;-62
2022/05/17 11:08:14;;;;;;;19.15;6.57;;;;;;;;;;5077227;28;20491;-62
2022/05/17 11:10:55;;;;;;;11.30;5.80;;;;;;;;;;5084793;28;20040;-63
2022/05/17 11:13:24;;;;;;;10.52;4.50;;;;;;;;;;5079441;28;20107;-63
2022/05/17 11:16:02;;;;;;;10.25;3.88;;;;;;;;;;5084918;28;20379;-63
2022/05/17 11:18:37;;;;;;;6.97;2.53;;;;;;;;;;5084684;28;20016;-63
2022/05/17 11:21:08;;;;;;;7.05;2.08;;;;;;;;;;5095153;28;20060;-63
2022/05/17 11:23:34;;;;;;;6.40;2.55;;;;;;;;;;5090261;28;20266;-63
2022/05/17 11:26:24;;;;;;;6.10;2.33;;;;;;;;;;5084252;28;20565;-63
2022/05/17 11:28:50;;;;;;;8.00;3.17;;;;;;;;;;5087592;28;20444;-63
2022/05/17 11:31:16;;;;;;;11.27;3.95;;;;;;;;;;5092443;28;20063;-63
2022/05/17 11:33:42;;;;;;;10.02;4.15;;;;;;;;;;5092996;28;20491;-63
2022/05/17 11:36:09;;;;;;;14.48;5.82;;;;;;;;;;5091168;28;20091;-63
2022/05/17 11:38:35;;;;;;;10.10;5.82;;;;;;;;;;5089225;28;20536;-63
2022/05/17 11:41:01;;;;;;;12.90;6.53;;;;;;;;;;5091107;28;20094;-63
2022/05/17 11:43:40;;;;;;;16.00;6.00;;;;;;;;;;5089236;28;20020;-63
2022/05/17 11:46:06;;;;;;;10.82;6.22;;;;;;;;;;5083224;28;20069;-63
2022/05/17 11:48:46;;;;;;;13.95;6.45;;;;;;;;;;5087482;28;20052;-63
2022/05/17 11:51:12;;;;;;;17.05;8.55;;;;;;;;;;5087301;28;20031;-63
2022/05/17 11:53:46;;;;;;;14.75;8.07;;;;;;;;;;5094545;28;20025;-63
2022/05/17 11:56:21;;;;;;;16.63;8.25;;;;;;;;;;5087803;28;20510;-62
2022/05/17 11:58:51;;;;;;;17.70;7.50;;;;;;;;;;5089621;28;20016;-63
2022/05/17 12:01:29;;;;;;;13.27;7.38;;;;;;;;;;5093679;28;20020;-62
2022/05/17 12:03:56;;;;;;;16.30;7.10;;;;;;;;;;5089840;28;20088;-62
2022/05/17 12:06:36;;;;;;;14.88;7.60;;;;;;;;;;5095559;28;20080;-63
2022/05/17 12:09:04;;;;;;;13.65;6.72;;;;;;;;;;5088434;28;20034;-63
2022/05/17 12:11:37;;;;;;;17.95;7.25;;;;;;;;;;5086306;28;20089;-62
2022/05/17 12:14:18;;;;;;;11.73;5.82;;;;;;;;;;5083841;28;20078;-62
2022/05/17 12:17:04;;;;;;;12.38;6.40;;;;;;;;;;5095338;28;20023;-63
2022/05/17 12:19:36;;;;;;;13.95;5.28;;;;;;;;;;5095358;28;20670;-63
2022/05/17 12:22:21;;;;;;;13.52;5.15;;;;;;;;;;5095770;27;20027;-63
2022/05/17 12:24:50;;;;;;;14.95;6.57;;;;;;;;;;5096797;28;20027;-63
2022/05/17 12:27:34;;;;;;;10.93;5.15;;;;;;;;;;5090287;28;20452;-63
2022/05/17 12:32:44;;;;;;;13.95;4.30;;;;;;;;;;5093643;28;19960;-62
2022/05/17 12:35:10;;;;;;;10.63;4.55;;;;;;;;;;5101296;28;20102;-62
2022/05/17 12:37:44;;;;;;;12.50;4.60;;;;;;;;;;5094116;28;21302;-62
2022/05/17 12:43:03;;;;;;;13.82;4.93;;;;;;;;;;5096300;28;20082;-62
2022/05/17 12:45:40;;;;;;;10.93;3.53;;;;;;;;;;5088659;28;20031;-62
2022/05/17 12:48:15;;;;;;;9.95;3.80;;;;;;;;;;5092126;28;20049;-62
2022/05/17 12:50:43;;;;;;;9.23;3.70;;;;;;;;;;5093469;28;20024;-62
2022/05/17 12:53:21;;;;;;;7.50;2.95;;;;;;;;;;5095954;28;20027;-62
2022/05/17 12:56:13;;;;;;;8.02;3.15;;;;;;;;;;5085324;28;20507;-61
2022/05/17 12:58:50;;;;;;;8.40;3.40;;;;;;;;;;5082562;28;20034;-62
2022/05/17 13:01:20;;;;;;;10.07;2.70;;;;;;;;;;5089024;28;20088;-62
2022/05/17 13:03:47;;;;;;;7.65;3.17;;;;;;;;;;5103375;28;20486;-62
2022/05/17 13:06:13;;;;;;;8.55;2.90;;;;;;;;;;5087600;28;20047;-62
2022/05/17 13:08:40;;;;;;;6.20;2.55;;;;;;;;;;5094524;28;20029;-62
2022/05/17 13:11:12;;;;;;;7.53;2.80;;;;;;;;;;5093859;28;20536;-62
2022/05/17 13:13:41;;;;;;;11.50;3.03;;;;;;;;;;5092068;28;20031;-62
2022/05/17 13:16:20;;;;;;;9.10;2.47;;;;;;;;;;5096306;28;21782;-63
2022/05/17 13:18:49;;;;;;;6.82;2.53;;;;;;;;;;5087363;28;20043;-62
2022/05/17 13:21:31;;;;;;;7.80;2.42;;;;;;;;;;5100527;28;20016;-62
2022/05/17 13:23:58;;;;;;;8.60;3.10;;;;;;;;;;5092829;28;20024;-62
2022/05/17 13:26:28;;;;;;;10.95;3.00;;;;;;;;;;5088549;28;20055;-62
2022/05/17 13:28:54;;;;;;;7.68;3.05;;;;;;;;;;5084134;28;20383;-62
2022/05/17 13:31:23;;;;;;;7.30;2.90;;;;;;;;;;5092291;28;20028;-62
2022/05/17 13:33:53;;;;;;;6.15;2.50;;;;;;;;;;5093839;28;20457;-62
2022/05/17 13:36:41;;;;;;;7.45;2.28;;;;;;;;;;5091685;28;20073;-62
2022/05/17 13:39:18;;;;;;;8.95;2.53;;;;;;;;;;5088584;28;20016;-62
2022/05/17 13:41:44;;;;;;;9.13;2.75;;;;;;;;;;5091898;28;20328;-62
2022/05/17 13:44:25;;;;;;;7.95;2.90;;;;;;;;;;5095371;28;20024;-62
2022/05/17 13:46:51;;;;;;;13.07;2.83;;;;;;;;;;5086071;28;20020;-62
2022/05/17 13:49:19;;;;;;;9.05;2.58;;;;;;;;;;5084358;28;20041;-62
2022/05/17 13:52:02;;;;;;;7.97;2.63;;;;;;;;;;5089224;28;20042;-62
2022/05/17 13:54:34;;;;;;;7.00;2.88;;;;;;;;;;5087727;28;20149;-62
2022/05/17 13:57:20;;;;;;;6.47;2.45;;;;;;;;;;5086254;28;20498;-62
2022/05/17 13:59:51;;;;;;;10.85;2.90;;;;;;;;;;5082493;28;20035;-63
2022/05/17 14:02:30;;;;;;;5.63;2.30;;;;;;;;;;5095055;28;20065;-62
2022/05/17 14:05:05;;;;;;;7.35;2.45;;;;;;;;;;5088898;28;20395;-62
2022/05/17 14:07:34;;;;;;;8.75;2.25;;;;;;;;;;5100777;28;20043;-61
2022/05/17 14:12:53;;;;;;;;;;;;;;;;;;5087494;28;20034;-62
2022/05/17 14:15:19;;;;;;;7.57;2.38;;;;;;;;;;5091688;28;19912;-62
2022/05/17 14:17:45;;;;;;;6.97;2.35;;;;;;;;;;5103052;28;20387;-62
2022/05/17 14:20:12;;;;;;;6.95;2.33;;;;;;;;;;5089840;28;20391;-62
2022/05/17 14:22:40;;;;;;;7.38;2.20;;;;;;;;;;5103184;28;20509;-62
2022/05/17 14:25:06;;;;;;;9.00;2.70;;;;;;;;;;5091255;28;20457;-62
2022/05/17 14:27:32;;;;;;;9.07;2.45;;;;;;;;;;5100052;28;20823;-62
2022/05/17 14:29:58;;;;;;;10.18;2.20;;;;;;;;;;5095622;28;20094;-62
2022/05/17 14:32:24;;;;;;;7.72;1.98;;;;;;;;;;5095663;28;20114;-62
2022/05/17 14:34:51;;;;;;;8.52;2.38;;;;;;;;;;5093166;28;20069;-62
2022/05/17 14:37:17;;;;;;;8.43;2.42;;;;;;;;;;5088730;28;20022;-63
2022/05/17 14:39:44;;;;;;;8.65;2.50;;;;;;;;;;5083561;28;20163;-62
2022/05/17 14:42:13;;;;;;;9.57;2.47;;;;;;;;;;5089990;28;20096;-62
2022/05/17 14:44:40;;;;;;;7.45;2.30;;;;;;;;;;5091754;28;20028;-61
2022/05/17 14:47:08;;;;;;;8.63;2.35;;;;;;;;;;5087186;28;20035;-62
2022/05/17 14:49:36;;;;;;;8.48;2.60;;;;;;;;;;5086974;28;20031;-62
2022/05/17 14:52:02;;;;;;;5.32;2.20;;;;;;;;;;5081634;28;20111;-62
2022/05/17 14:54:28;;;;;;;6.97;2.15;;;;;;;;;;5072624;28;20412;-62
2022/05/17 14:56:54;;;;;;;7.57;2.38;;;;;;;;;;5083104;28;20112;-62
2022/05/17 14:59:20;;;;;;;6.75;2.40;;;;;;;;;;5087767;28;20020;-62